Orion — VRBZ2 — position and weather

sailwx.info

Track history (hours):
 
Tides and Currents Weather Stations Pressure Air Temp Water Temp Dewpoint Dewpoint Depression Visibility Wind Speed Wind Dir Waves Ship Positions

Orion

Last reported at 2018-Mar-24 15:44 UTC. Time now 2018-May-26 21:41 UTC.
Position N 09°11' W 079°52'.
Warning: this ship's position is months out of date.

Length 181 m; draft 11.1 m.

Type: Ship (hazmat cat C). MMSI: 477241100.

Date/timePositionNaut miles runAvg speedWind from/ knotsBaromVisibWave heightAir tempDewpointWater temp
2018-Mar-24 15:44N 09°11' W 079°52'2 8.8
2018-Mar-24 15:30N 09°12' W 079°54'4 7.3
2018-Mar-24 15:00N 09°15' W 079°55'1 2.8
2018-Mar-24 14:30N 09°16' W 079°55'0 0.3
2018-Mar-24 13:59N 09°16' W 079°55'0 0.4
2018-Mar-24 13:30N 09°17' W 079°55'1 1.2
2018-Mar-24 13:00N 09°17' W 079°55'1 2.2
2018-Mar-24 12:31N 09°18' W 079°55'2 3.6
2018-Mar-24 12:00N 09°20' W 079°55'3 5.9
2018-Mar-24 11:31N 09°23' W 079°55'3 6.3
2018-Mar-24 11:00N 09°26' W 079°56'2 4.4
2018-Mar-24 10:31N 09°26' W 079°58'1 0.3
2018-Mar-24 08:27N 09°26' W 079°58'0 0.0
2018-Mar-24 06:45N 09°26' W 079°58'0 0.0
2018-Mar-24 04:15N 09°26' W 079°58'0 0.0
2018-Mar-24 03:00N 09°26' W 079°58'0 0.0
2018-Mar-24 02:27N 09°26' W 079°58'0 0.0
2018-Mar-24 01:57N 09°26' W 079°58'0 0.0
2018-Mar-24 01:27N 09°26' W 079°58'0 0.0
2018-Mar-23 23:42N 09°26' W 079°58'0 0.0
2018-Mar-23 22:45N 09°26' W 079°58'0 0.0
2018-Mar-23 22:30N 09°26' W 079°58'0 0.0
2018-Mar-23 22:00N 09°26' W 079°58'0 0.0
2018-Mar-23 21:27N 09°26' W 079°58'0 0.1
2018-Mar-23 20:54N 09°26' W 079°58'0 0.3
2018-Mar-23 20:30N 09°26' W 079°58'2 3.1
2018-Mar-23 20:00N 09°27' W 079°57'4 7.7
2018-Mar-23 19:30N 09°31' W 079°56'5 8.6
2018-Mar-23 18:56N 09°34' W 079°53'  
2018-Mar-20 01:17N 24°47' W 075°33'2111.9
2018-Mar-19 23:31N 25°02' W 075°49'183 4.2
2018-Mar-18 03:32N 26°30' W 078°47'0 0.0
2018-Mar-18 03:10N 26°30' W 078°47'0 0.0
2018-Mar-18 02:44N 26°30' W 078°47'0 0.0
2018-Mar-18 02:21N 26°30' W 078°47'37 2.1
2018-Mar-17 08:39N 26°09' W 079°20'812.9
2018-Mar-17 08:03N 26°05' W 079°27'112.9
2018-Mar-17 08:00N 26°05' W 079°27'611.9
2018-Mar-17 07:28N 25°59' W 079°29'612.1
2018-Mar-17 07:00N 25°53' W 079°29'713.2
2018-Mar-17 06:30N 25°46' W 079°30'713.5
2018-Mar-17 06:00N 25°39' W 079°30'813.5
2018-Mar-17 05:25N 25°32' W 079°30'  
Track history (hours):
 
Tides and Currents Weather Stations Pressure Air Temp Water Temp Dewpoint Dewpoint Depression Visibility Wind Speed Wind Dir Waves Ship Positions

Orion

Last reported at 2018-Mar-24 15:44 UTC. Time now 2018-May-26 21:41 UTC.
Position N 09°11' W 079°52'.
Warning: this ship's position is months out of date.

Length 181 m; draft 11.1 m.

Type: Ship (hazmat cat C). MMSI: 477241100.

Date/timePositionNaut miles runAvg speedWind from/ knotsBaromVisibWave heightAir tempDewpointWater temp
2018-Mar-24 15:44N 09°11' W 079°52'2 8.8
2018-Mar-24 15:30N 09°12' W 079°54'4 7.3
2018-Mar-24 15:00N 09°15' W 079°55'1 2.8
2018-Mar-24 14:30N 09°16' W 079°55'0 0.3
2018-Mar-24 13:59N 09°16' W 079°55'0 0.4
2018-Mar-24 13:30N 09°17' W 079°55'1 1.2
2018-Mar-24 13:00N 09°17' W 079°55'1 2.2
2018-Mar-24 12:31N 09°18' W 079°55'2 3.6
2018-Mar-24 12:00N 09°20' W 079°55'3 5.9
2018-Mar-24 11:31N 09°23' W 079°55'3 6.3
2018-Mar-24 11:00N 09°26' W 079°56'2 4.4
2018-Mar-24 10:31N 09°26' W 079°58'1 0.3
2018-Mar-24 08:27N 09°26' W 079°58'0 0.0
2018-Mar-24 06:45N 09°26' W 079°58'0 0.0
2018-Mar-24 04:15N 09°26' W 079°58'0 0.0
2018-Mar-24 03:00N 09°26' W 079°58'0 0.0
2018-Mar-24 02:27N 09°26' W 079°58'0 0.0
2018-Mar-24 01:57N 09°26' W 079°58'0 0.0
2018-Mar-24 01:27N 09°26' W 079°58'0 0.0
2018-Mar-23 23:42N 09°26' W 079°58'0 0.0
2018-Mar-23 22:45N 09°26' W 079°58'0 0.0
2018-Mar-23 22:30N 09°26' W 079°58'0 0.0
2018-Mar-23 22:00N 09°26' W 079°58'0 0.0
2018-Mar-23 21:27N 09°26' W 079°58'0 0.1
2018-Mar-23 20:54N 09°26' W 079°58'0 0.3
2018-Mar-23 20:30N 09°26' W 079°58'2 3.1
2018-Mar-23 20:00N 09°27' W 079°57'4 7.7
2018-Mar-23 19:30N 09°31' W 079°56'5 8.6
2018-Mar-23 18:56N 09°34' W 079°53'  
2018-Mar-20 01:17N 24°47' W 075°33'2111.9
2018-Mar-19 23:31N 25°02' W 075°49'183 4.2
2018-Mar-18 03:32N 26°30' W 078°47'0 0.0
2018-Mar-18 03:10N 26°30' W 078°47'0 0.0
2018-Mar-18 02:44N 26°30' W 078°47'0 0.0
2018-Mar-18 02:21N 26°30' W 078°47'37 2.1
2018-Mar-17 08:39N 26°09' W 079°20'812.9
2018-Mar-17 08:03N 26°05' W 079°27'112.9
2018-Mar-17 08:00N 26°05' W 079°27'611.9
2018-Mar-17 07:28N 25°59' W 079°29'612.1
2018-Mar-17 07:00N 25°53' W 079°29'713.2
2018-Mar-17 06:30N 25°46' W 079°30'713.5
2018-Mar-17 06:00N 25°39' W 079°30'813.5
2018-Mar-17 05:25N 25°32' W 079°30'  

Dump ship's entire track history